Time;durP1;ratioP1;P1;durP2;ratioP2;P2;SDS_P1;SDS_P2;PMS_P1;PMS_P2;Temp;Humidity;BMP_temperature;BMP_pressure;BME280_temperature;BME280_humidity;BME280_pressure;Samples;Min_cycle;Max_cycle;Signal;HPM_P1;HPM_P2
2021/01/19 00:00:59;;;;;;;37.83;22.37;;;;;;;5.40;100.00;100351.09;5001447;28;20202;-32
2021/01/19 00:03:47;;;;;;;31.23;21.40;;;;;;;5.27;100.00;100354.34;5000890;28;20243;-32
2021/01/19 00:06:34;;;;;;;32.10;22.13;;;;;;;5.37;100.00;100351.09;5000817;28;20198;-32
2021/01/19 00:09:20;;;;;;;29.57;20.67;;;;;;;5.43;100.00;100351.16;5000212;28;20316;-32
2021/01/19 00:12:08;;;;;;;30.77;21.10;;;;;;;5.54;100.00;100347.03;5000147;28;20206;-32
2021/01/19 00:14:54;;;;;;;30.30;19.73;;;;;;;5.37;100.00;100344.25;5000260;28;20214;-33
2021/01/19 00:17:42;;;;;;;29.07;18.90;;;;;;;5.53;100.00;100337.63;5000336;28;20319;-33
2021/01/19 00:20:29;;;;;;;29.17;19.30;;;;;;;5.48;100.00;100337.56;5001031;28;20210;-33
2021/01/19 00:23:15;;;;;;;28.00;19.50;;;;;;;5.46;100.00;100335.81;5000087;28;20250;-33
2021/01/19 00:26:02;;;;;;;27.67;18.20;;;;;;;5.55;100.00;100325.66;4999767;28;20342;-33
2021/01/19 00:28:48;;;;;;;21.50;15.93;;;;;;;5.55;100.00;100325.66;5000493;28;20605;-31
2021/01/19 00:31:35;;;;;;;21.17;16.70;;;;;;;5.57;100.00;100329.13;5000735;28;20191;-32
2021/01/19 00:34:22;;;;;;;20.53;16.10;;;;;;;5.72;100.00;100323.31;5000400;28;20202;-32
2021/01/19 00:37:08;;;;;;;24.23;17.07;;;;;;;5.54;100.00;100322.25;5001722;28;20198;-32
2021/01/19 00:39:55;;;;;;;21.67;16.10;;;;;;;5.60;100.00;100329.13;5000326;28;20199;-32
2021/01/19 00:42:41;;;;;;;25.57;16.57;;;;;;;5.71;100.00;100322.44;5000178;28;20277;-32
2021/01/19 00:45:28;;;;;;;24.93;17.40;;;;;;;5.67;100.00;100319.81;4999943;28;20582;-32
2021/01/19 00:48:14;;;;;;;22.03;16.20;;;;;;;5.72;100.00;100313.91;5000076;28;20485;-33
2021/01/19 00:51:01;;;;;;;20.07;15.73;;;;;;;5.72;100.00;100313.91;5002125;28;20203;-32
2021/01/19 00:53:49;;;;;;;21.80;16.10;;;;;;;5.70;100.00;100307.88;5002314;28;20293;-32
2021/01/19 00:56:37;;;;;;;22.63;15.07;;;;;;;5.74;100.00;100301.94;4999683;28;20262;-32
2021/01/19 00:59:23;;;;;;;22.37;16.50;;;;;;;5.70;100.00;100297.63;5000150;28;20207;-33
2021/01/19 01:02:10;;;;;;;20.73;15.03;;;;;;;5.67;100.00;100289.03;4999850;28;20290;-33
2021/01/19 01:04:56;;;;;;;18.83;14.83;;;;;;;5.60;100.00;100282.09;5005290;28;20230;-32
2021/01/19 01:07:44;;;;;;;19.30;14.90;;;;;;;5.70;100.00;100279.66;4999710;28;20206;-32
2021/01/19 01:10:30;;;;;;;18.27;15.37;;;;;;;5.42;100.00;100267.34;4999299;28;20254;-32
2021/01/19 01:13:17;;;;;;;22.83;15.00;;;;;;;5.76;100.00;100255.78;5000188;28;20313;-32
2021/01/19 01:16:05;;;;;;;17.90;15.87;;;;;;;5.46;100.00;100257.16;5000742;28;20207;-31
2021/01/19 01:18:52;;;;;;;18.00;13.97;;;;;;;5.61;100.00;100256.44;4999194;28;20616;-32
2021/01/19 01:21:38;;;;;;;21.83;14.33;;;;;;;5.56;100.00;100245.28;4999456;28;20266;-32
2021/01/19 01:24:26;;;;;;;21.13;14.73;;;;;;;5.71;100.00;100253.16;5002043;28;20508;-33
2021/01/19 01:27:12;;;;;;;18.77;14.17;;;;;;;5.45;100.00;100247.72;4999447;28;20702;-32
2021/01/19 01:29:58;;;;;;;19.57;12.97;;;;;;;5.72;100.00;100241.19;5001482;28;20201;-32
2021/01/19 01:32:48;;;;;;;20.27;13.93;;;;;;;5.56;100.00;100232.47;4999636;28;20270;-32
2021/01/19 01:35:34;;;;;;;25.23;14.93;;;;;;;5.50;100.00;100240.94;4998914;28;20261;-32
2021/01/19 01:38:27;;;;;;;16.53;14.83;;;;;;;5.65;100.00;100232.56;4998804;28;20257;-32
2021/01/19 01:41:20;;;;;;;19.13;16.00;;;;;;;5.60;100.00;100223.06;4999251;28;20684;-32
2021/01/19 01:44:06;;;;;;;20.83;16.00;;;;;;;5.69;100.00;100205.22;4999369;28;20289;-33
2021/01/19 01:46:52;;;;;;;18.17;14.87;;;;;;;5.65;100.00;100198.34;4999531;28;20482;-32
2021/01/19 01:49:39;;;;;;;20.87;13.00;;;;;;;5.73;100.00;100204.41;4998974;28;20218;-32
2021/01/19 01:52:28;;;;;;;20.20;13.57;;;;;;;5.78;100.00;100202.75;4999975;28;20202;-32
2021/01/19 01:55:16;;;;;;;17.23;13.03;;;;;;;5.61;100.00;100201.69;5003963;28;20287;-32
2021/01/19 01:58:06;;;;;;;24.70;13.27;;;;;;;5.73;100.00;100191.59;4999523;28;20194;-32
2021/01/19 02:00:54;;;;;;;18.00;11.87;;;;;;;5.85;100.00;100192.53;5000191;28;20227;-32
2021/01/19 02:03:40;;;;;;;21.30;11.47;;;;;;;5.60;100.00;100184.59;4998412;28;20237;-32
2021/01/19 02:06:28;;;;;;;14.87;10.90;;;;;;;5.68;100.00;100177.84;4998843;28;20199;-33
2021/01/19 02:09:22;;;;;;;15.77;10.47;;;;;;;5.72;100.00;100177.88;4998721;28;20202;-32
2021/01/19 02:12:15;;;;;;;19.27;10.90;;;;;;;6.01;100.00;100167.88;4998737;28;20199;-32
2021/01/19 02:15:07;;;;;;;17.33;10.83;;;;;;;5.87;100.00;100175.44;4998736;28;20293;-32
2021/01/19 02:18:04;;;;;;;19.57;10.73;;;;;;;5.74;100.00;100160.81;4998786;28;20203;-31
2021/01/19 02:21:27;;;;;;;18.07;9.63;;;;;;;5.79;100.00;100148.03;5000469;28;20290;-32
2021/01/19 02:24:17;;;;;;;27.03;10.67;;;;;;;5.71;100.00;100147.06;5000236;28;20230;-32
2021/01/19 02:27:19;;;;;;;19.43;9.50;;;;;;;5.53;100.00;100146.06;5001252;28;20202;-32
2021/01/19 02:30:19;;;;;;;17.17;9.50;;;;;;;5.62;100.00;100131.59;4998520;28;20214;-32
2021/01/19 02:33:12;;;;;;;20.27;9.60;;;;;;;5.63;100.00;100129.03;4998163;28;20221;-31
2021/01/19 02:36:07;;;;;;;11.30;8.17;;;;;;;5.75;100.00;100118.91;4998252;28;20285;-32
2021/01/19 02:38:57;;;;;;;16.33;8.20;;;;;;;5.81;100.00;100118.91;4998258;28;20203;-31
2021/01/19 02:41:47;;;;;;;11.33;7.90;;;;;;;5.62;100.00;100106.78;4998226;28;20703;-32
2021/01/19 02:44:38;;;;;;;14.77;7.57;;;;;;;5.65;100.00;100096.56;4998287;28;20226;-31
2021/01/19 02:47:25;;;;;;;11.77;7.37;;;;;;;5.58;100.00;100105.06;4998242;28;20262;-31
2021/01/19 02:50:13;;;;;;;12.13;6.63;;;;;;;5.61;100.00;100094.81;4998164;28;20345;-31
2021/01/19 02:53:00;;;;;;;18.27;7.50;;;;;;;5.52;100.00;100094.75;4999295;28;20203;-32
2021/01/19 02:55:47;;;;;;;14.17;7.67;;;;;;;5.54;100.00;100072.53;4998349;28;20206;-31
2021/01/19 02:58:45;;;;;;;18.10;7.70;;;;;;;5.62;100.00;100076.00;4998532;28;20644;-31
2021/01/19 03:01:39;;;;;;;11.87;6.90;;;;;;;5.59;100.00;100070.00;4998066;28;20206;-32
2021/01/19 03:04:29;;;;;;;11.40;6.67;;;;;;;5.78;100.00;100070.16;4997917;28;20237;-32
2021/01/19 03:07:20;;;;;;;12.07;6.50;;;;;;;5.67;100.00;100064.06;4997823;28;20202;-33
2021/01/19 03:10:07;;;;;;;9.73;5.30;;;;;;;5.72;100.00;100064.13;4998117;28;20657;-32
2021/01/19 03:12:54;;;;;;;10.40;5.70;;;;;;;5.61;100.00;100056.31;4998092;28;20498;-32
2021/01/19 03:15:41;;;;;;;12.40;5.90;;;;;;;5.76;100.00;100046.19;4998006;28;20202;-33
2021/01/19 03:18:28;;;;;;;10.63;6.03;;;;;;;5.61;100.00;100047.75;4998202;28;20223;-32
2021/01/19 03:21:15;;;;;;;11.03;5.77;;;;;;;5.68;100.00;100042.69;5000470;28;20219;-33
2021/01/19 03:24:05;;;;;;;12.03;5.60;;;;;;;5.78;100.00;100041.94;5001405;28;20640;-32
2021/01/19 03:26:51;;;;;;;10.87;4.70;;;;;;;5.61;100.00;100025.53;5000034;28;20238;-32
2021/01/19 03:29:37;;;;;;;8.37;4.70;;;;;;;5.77;100.00;100019.69;4999913;28;20605;-31
2021/01/19 03:32:23;;;;;;;6.23;4.20;;;;;;;5.63;100.00;100008.44;4997840;28;20199;-32
2021/01/19 03:35:10;;;;;;;7.60;3.83;;;;;;;5.67;100.00;100007.63;4999805;28;20219;-31
2021/01/19 03:37:57;;;;;;;4.40;4.00;;;;;;;5.56;100.00;100000.72;4998951;28;20524;-31
2021/01/19 03:40:44;;;;;;;9.53;4.70;;;;;;;5.53;100.00;99993.84;4998401;28;20198;-32
2021/01/19 03:43:32;;;;;;;6.23;4.10;;;;;;;5.62;100.00;99995.59;5001777;28;20249;-33
2021/01/19 03:46:18;;;;;;;6.43;3.73;;;;;;;5.70;100.00;99989.69;5001523;28;20206;-32
2021/01/19 03:49:05;;;;;;;9.27;4.10;;;;;;;5.69;100.00;99967.44;5001756;28;20203;-32
2021/01/19 03:51:52;;;;;;;5.93;3.50;;;;;;;5.46;100.00;99976.69;5001964;28;20343;-32
2021/01/19 03:54:38;;;;;;;5.73;4.63;;;;;;;5.47;100.00;99961.31;5001848;28;20297;-33
2021/01/19 03:57:26;;;;;;;4.37;3.67;;;;;;;5.72;100.00;99966.59;5001709;28;20293;-32
2021/01/19 04:00:15;;;;;;;5.73;4.00;;;;;;;5.46;100.00;99951.91;5001135;28;20202;-32
2021/01/19 04:03:01;;;;;;;5.77;4.10;;;;;;;5.42;100.00;99957.00;5000758;28;20238;-32
2021/01/19 04:05:47;;;;;;;8.20;4.43;;;;;;;5.33;100.00;99942.41;5002537;28;20231;-33
2021/01/19 04:08:34;;;;;;;7.13;3.93;;;;;;;5.47;100.00;99942.50;5001054;28;20277;-32
2021/01/19 04:11:19;;;;;;;7.80;4.17;;;;;;;5.45;100.00;99929.66;5001006;28;20540;-32
2021/01/19 04:14:07;;;;;;;5.20;4.07;;;;;;;5.35;100.00;99917.63;5001359;28;20349;-32
2021/01/19 04:16:53;;;;;;;5.80;3.63;;;;;;;5.21;100.00;99908.97;5001121;28;20342;-32
2021/01/19 04:19:40;;;;;;;5.63;3.67;;;;;;;5.38;100.00;99898.84;5001171;28;20494;-32
2021/01/19 04:22:26;;;;;;;5.17;3.77;;;;;;;5.26;100.00;99891.91;5002398;28;20202;-32
2021/01/19 04:25:13;;;;;;;7.53;3.33;;;;;;;5.27;100.00;99883.38;5001139;28;20226;-32
2021/01/19 04:28:01;;;;;;;7.93;3.63;;;;;;;5.22;100.00;99868.81;5001054;28;20593;-30
2021/01/19 04:30:49;;;;;;;6.47;3.37;;;;;;;5.25;100.00;99867.13;5001163;28;20199;-33
2021/01/19 04:33:35;;;;;;;5.70;2.90;;;;;;;5.32;100.00;99857.78;5001365;28;20210;-33
2021/01/19 04:36:21;;;;;;;6.77;3.50;;;;;;;5.36;100.00;99849.25;5001331;28;20197;-32
2021/01/19 04:39:08;;;;;;;8.83;2.87;;;;;;;5.43;100.00;99849.28;5001820;28;20641;-31
2021/01/19 04:41:56;;;;;;;7.93;3.00;;;;;;;5.35;100.00;99842.41;5000763;28;20202;-31
2021/01/19 04:44:42;;;;;;;5.73;2.60;;;;;;;5.28;100.00;99835.53;5000210;28;20230;-32
2021/01/19 04:47:32;;;;;;;4.60;2.40;;;;;;;5.43;100.00;99831.31;5000075;28;20305;-32
2021/01/19 04:50:18;;;;;;;5.63;2.77;;;;;;;5.39;100.00;99821.06;5000608;28;20202;-32
2021/01/19 04:53:06;;;;;;;7.60;2.50;;;;;;;5.37;100.00;99813.38;4999509;28;20202;-32
2021/01/19 04:55:54;;;;;;;5.93;2.50;;;;;;;5.43;100.00;99813.38;5000153;28;20198;-32
2021/01/19 04:58:44;;;;;;;6.40;2.80;;;;;;;5.35;100.00;99798.81;5000110;28;20364;-32
2021/01/19 05:02:00;;;;;;;5.77;2.27;;;;;;;5.40;100.00;99786.84;5000230;28;20202;-31
2021/01/19 05:04:50;;;;;;;8.37;2.93;;;;;;;5.45;100.00;99790.28;5001502;28;20241;-32
2021/01/19 05:07:47;;;;;;;7.63;2.57;;;;;;;5.41;100.00;99786.00;4999657;28;20218;-33
2021/01/19 05:10:35;;;;;;;4.00;2.40;;;;;;;5.48;100.00;99774.91;5000077;28;20618;-33
2021/01/19 05:13:48;;;;;;;7.30;2.73;;;;;;;5.43;100.00;99762.06;5000082;28;20235;-31
2021/01/19 05:16:36;;;;;;;6.00;3.00;;;;;;;5.47;100.00;99762.94;4999488;28;20507;-32
2021/01/19 05:19:23;;;;;;;6.33;2.53;;;;;;;5.50;100.00;99753.56;5000746;28;20202;-32
2021/01/19 05:22:16;;;;;;;4.77;2.53;;;;;;;5.56;100.00;99745.03;4999295;28;20223;-32
2021/01/19 05:25:03;;;;;;;1.90;1.80;;;;;;;5.37;100.00;99731.28;4999600;28;20234;-32
2021/01/19 05:27:51;;;;;;;5.13;2.40;;;;;;;5.37;100.00;99736.44;5000225;28;20191;-32
2021/01/19 05:30:37;;;;;;;6.07;2.40;;;;;;;5.55;100.00;99740.75;4999211;28;20276;-32
2021/01/19 05:33:24;;;;;;;2.70;2.33;;;;;;;5.46;100.00;99733.03;5000848;28;20199;-32
2021/01/19 05:36:12;;;;;;;4.57;2.43;;;;;;;5.50;100.00;99719.34;4999824;28;20202;-32
2021/01/19 05:38:59;;;;;;;8.80;2.90;;;;;;;5.34;100.00;99709.91;5000133;28;20214;-33
2021/01/19 05:41:47;;;;;;;8.43;2.90;;;;;;;5.28;100.00;99697.06;4999626;28;20290;-31
2021/01/19 05:44:33;;;;;;;5.67;2.57;;;;;;;5.28;100.00;99690.22;5000471;28;20242;-31
2021/01/19 05:47:19;;;;;;;5.07;2.03;;;;;;;5.38;100.00;99674.03;4999733;28;20194;-31
2021/01/19 05:50:10;;;;;;;6.33;3.07;;;;;;;5.40;100.00;99672.28;4998913;28;20314;-31
2021/01/19 05:52:57;;;;;;;9.20;2.77;;;;;;;5.22;100.00;99666.25;4999013;28;20337;-32
2021/01/19 05:55:45;;;;;;;4.37;2.30;;;;;;;5.10;100.00;99660.25;4999824;28;20198;-32
2021/01/19 05:58:36;;;;;;;5.37;2.73;;;;;;;5.15;100.00;99647.47;4999352;28;20194;-32
2021/01/19 06:01:35;;;;;;;10.70;3.43;;;;;;;4.99;100.00;99640.59;4998531;28;20202;-33
2021/01/19 06:04:39;;;;;;;10.00;2.90;;;;;;;4.97;100.00;99627.75;4998969;28;20245;-33
2021/01/19 06:07:28;;;;;;;14.83;4.03;;;;;;;4.94;100.00;99627.75;5000615;28;20312;-32
2021/01/19 06:10:16;;;;;;;6.00;2.80;;;;;;;4.87;100.00;99620.88;4999301;28;20278;-32
2021/01/19 06:13:03;;;;;;;14.73;5.10;;;;;;;4.87;100.00;99618.31;4998825;28;20260;-32
2021/01/19 06:15:49;;;;;;;9.10;3.53;;;;;;;4.92;100.00;99619.19;4998848;28;20202;-32
2021/01/19 06:18:39;;;;;;;10.83;5.07;;;;;;;4.89;100.00;99616.63;4997982;28;20210;-33
2021/01/19 06:21:26;;;;;;;6.17;4.27;;;;;;;4.85;100.00;99613.19;4999125;28;20202;-32
2021/01/19 06:24:13;;;;;;;9.87;4.30;;;;;;;4.93;100.00;99609.78;5000354;28;20194;-33
2021/01/19 06:26:59;;;;;;;8.27;6.40;;;;;;;4.85;100.00;99596.94;5004288;28;20647;-33
2021/01/19 06:29:47;;;;;;;4.10;3.70;;;;;;;4.87;100.00;99600.38;4998496;28;20334;-32
2021/01/19 06:32:35;;;;;;;5.47;3.20;;;;;;;4.93;100.00;99587.59;4998523;28;20198;-33
2021/01/19 06:35:24;;;;;;;10.87;4.50;;;;;;;4.91;100.00;99580.75;4998669;28;20473;-33
2021/01/19 06:38:17;;;;;;;9.70;3.50;;;;;;;5.05;100.00;99594.44;5005539;28;20198;-33
2021/01/19 06:41:15;;;;;;;8.23;3.03;;;;;;;5.01;100.00;99570.50;5017637;28;20363;-33
2021/01/19 06:44:11;;;;;;;8.97;3.53;;;;;;;5.02;100.00;99561.13;5017557;28;20205;-33
2021/01/19 06:46:59;;;;;;;5.83;2.83;;;;;;;5.06;100.00;99565.41;5020604;28;20193;-33
2021/01/19 06:49:45;;;;;;;5.60;3.10;;;;;;;4.94;100.00;99543.19;5017615;28;20207;-32
2021/01/19 06:52:38;;;;;;;7.43;3.17;;;;;;;5.01;100.00;99539.75;5017440;28;20198;-32
2021/01/19 06:55:32;;;;;;;5.17;2.77;;;;;;;5.00;100.00;99532.91;5017494;28;20198;-33
2021/01/19 06:58:46;;;;;;;8.47;3.47;;;;;;;4.94;100.00;99532.94;5017931;28;20269;-33
2021/01/19 07:01:37;;;;;;;7.27;2.60;;;;;;;4.83;100.00;99521.78;5017186;28;20251;-33
2021/01/19 07:04:25;;;;;;;8.17;2.87;;;;;;;5.13;100.00;99519.28;5017396;28;20505;-34
2021/01/19 07:07:19;;;;;;;5.60;3.50;;;;;;;4.93;100.00;99502.19;5020106;28;20230;-34
2021/01/19 07:10:08;;;;;;;9.93;3.40;;;;;;;4.90;100.00;99492.78;5019271;28;20260;-33
2021/01/19 07:13:06;;;;;;;5.67;3.07;;;;;;;4.85;100.00;99474.81;5017961;28;20205;-33
2021/01/19 07:16:05;;;;;;;8.67;3.07;;;;;;;5.09;100.00;99485.94;5016621;28;20519;-33
2021/01/19 07:19:18;;;;;;;4.97;3.13;;;;;;;5.04;100.00;99475.69;5020900;28;20205;-35
2021/01/19 07:22:08;;;;;;;6.67;3.50;;;;;;;5.07;100.00;99465.44;5002374;28;20201;-34
2021/01/19 07:24:54;;;;;;;7.33;2.70;;;;;;;4.93;100.00;99472.28;5001873;28;20320;-32
2021/01/19 07:27:41;;;;;;;6.20;3.10;;;;;;;5.02;100.00;99462.03;5001468;28;20665;-35
2021/01/19 07:30:28;;;;;;;4.87;2.70;;;;;;;5.04;100.00;99485.94;5002393;28;20198;-36
2021/01/19 07:33:16;;;;;;;7.47;2.87;;;;;;;5.15;100.00;99478.28;5001091;28;20720;-34
2021/01/19 07:36:03;;;;;;;6.53;3.03;;;;;;;5.04;100.00;99472.28;5008315;28;20419;-34
2021/01/19 07:38:52;;;;;;;8.70;2.77;;;;;;;5.15;100.00;99468.88;4999133;28;20202;-34
2021/01/19 07:41:38;;;;;;;3.10;2.67;;;;;;;5.04;100.00;99456.91;5005426;28;20195;-34
2021/01/19 07:44:25;;;;;;;4.17;2.87;;;;;;;5.08;100.00;99456.91;5003089;28;20489;-34
2021/01/19 07:47:38;;;;;;;4.33;2.60;;;;;;;5.19;100.00;99444.09;5000656;28;20203;-34
2021/01/19 07:50:24;;;;;;;8.17;3.00;;;;;;;4.97;100.00;99437.25;5002733;28;20202;-33
2021/01/19 07:53:11;;;;;;;3.57;2.73;;;;;;;5.05;100.00;99427.84;5000923;28;20262;-35
2021/01/19 07:55:58;;;;;;;3.60;2.90;;;;;;;5.13;100.00;99426.16;5001225;28;20195;-35
2021/01/19 07:58:45;;;;;;;4.27;2.77;;;;;;;5.16;100.00;99421.03;5000099;28;20198;-34
2021/01/19 08:01:34;;;;;;;4.00;2.70;;;;;;;5.16;100.00;99415.91;5001012;28;20547;-34
2021/01/19 08:04:28;;;;;;;3.67;2.57;;;;;;;5.18;100.00;99402.22;5000553;28;20242;-35
2021/01/19 08:07:16;;;;;;;2.40;2.20;;;;;;;5.06;100.00;99397.09;5004665;28;20203;-35
2021/01/19 08:10:02;;;;;;;6.60;4.57;;;;;;;5.10;100.00;99392.81;5000363;28;20271;-35
2021/01/19 08:12:54;;;;;;;2.77;2.57;;;;;;;5.14;100.00;99386.84;5000694;28;20210;-34
2021/01/19 08:15:41;;;;;;;2.77;2.57;;;;;;;5.14;100.00;99374.88;5000633;28;20199;-35
2021/01/19 08:18:40;;;;;;;3.10;2.50;;;;;;;5.17;100.00;99374.88;5000235;28;20207;-36
2021/01/19 08:21:27;;;;;;;2.80;2.60;;;;;;;5.12;100.00;99365.50;5000551;28;20205;-33
2021/01/19 08:24:14;;;;;;;3.97;2.90;;;;;;;5.13;100.00;99370.63;4999977;28;20202;-36
2021/01/19 08:27:01;;;;;;;4.00;3.10;;;;;;;5.12;100.00;99361.22;5000160;28;20190;-36
2021/01/19 08:29:50;;;;;;;6.27;2.87;;;;;;;5.09;100.00;99352.66;5002836;28;20194;-35
2021/01/19 08:32:39;;;;;;;3.17;2.07;;;;;;;5.22;100.00;99345.81;5000634;28;20616;-35
2021/01/19 08:35:27;;;;;;;2.37;2.23;;;;;;;5.16;100.00;99344.97;5000461;28;20249;-35
2021/01/19 08:38:13;;;;;;;4.53;2.80;;;;;;;5.11;100.00;99338.16;5000050;28;20221;-35
2021/01/19 08:41:00;;;;;;;3.57;2.33;;;;;;;5.10;100.00;99337.28;5000605;28;20672;-35
2021/01/19 08:43:57;;;;;;;3.50;2.20;;;;;;;5.13;100.00;99334.72;4999686;28;20218;-36
2021/01/19 08:46:45;;;;;;;4.77;2.47;;;;;;;5.30;100.00;99323.56;5000745;28;20644;-36
2021/01/19 08:49:35;;;;;;;4.20;2.10;;;;;;;5.18;100.00;99319.34;5007347;28;20298;-36
2021/01/19 08:52:26;;;;;;;4.03;2.30;;;;;;;5.24;100.00;99314.19;4999976;28;20231;-36
2021/01/19 08:55:17;;;;;;;2.80;2.20;;;;;;;5.30;100.00;99329.56;4999266;28;20511;-35
2021/01/19 08:58:04;;;;;;;2.27;2.13;;;;;;;5.27;100.00;99321.00;4999814;28;20198;-36
2021/01/19 09:00:50;;;;;;;2.13;1.97;;;;;;;5.17;100.00;99305.69;4999700;28;20250;-35
2021/01/19 09:03:37;;;;;;;2.50;2.07;;;;;;;5.26;100.00;99309.06;4999659;28;20721;-34
2021/01/19 09:06:27;;;;;;;3.33;2.10;;;;;;;5.25;100.00;99289.41;5000645;28;20238;-36
2021/01/19 09:09:20;;;;;;;2.77;2.57;;;;;;;5.33;100.00;99293.66;4999553;28;20202;-35
2021/01/19 09:12:15;;;;;;;3.53;2.00;;;;;;;5.38;100.00;99288.53;5000923;28;20199;-35
2021/01/19 09:15:03;;;;;;;2.10;1.83;;;;;;;5.27;100.00;99262.06;4999198;28;20203;-35
2021/01/19 09:17:54;;;;;;;2.60;2.40;;;;;;;5.29;100.00;99266.31;4999307;28;20210;-36
2021/01/19 09:20:43;;;;;;;1.77;1.50;;;;;;;5.23;100.00;99266.31;5000469;28;20599;-33
2021/01/19 09:23:35;;;;;;;2.30;1.73;;;;;;;5.31;100.00;99263.75;4998954;28;20245;-36
2021/01/19 09:26:23;;;;;;;1.90;1.80;;;;;;;5.21;100.00;99252.66;4999493;28;20234;-35
2021/01/19 09:29:12;;;;;;;2.93;1.90;;;;;;;5.21;100.00;99250.09;4999025;28;20484;-36
2021/01/19 09:32:01;;;;;;;2.17;1.90;;;;;;;5.08;100.00;99251.88;4998888;28;20314;-35
2021/01/19 09:34:50;;;;;;;3.93;1.20;;;;;;;4.98;100.00;99249.34;4999646;28;20202;-35
2021/01/19 09:37:37;;;;;;;1.50;1.40;;;;;;;5.06;100.00;99253.56;4999944;28;20363;-34
2021/01/19 09:40:30;;;;;;;1.40;1.40;;;;;;;5.19;100.00;99255.25;4999144;28;20198;-35
2021/01/19 09:43:17;;;;;;;2.20;1.43;;;;;;;4.99;100.00;99246.78;5001718;28;20394;-35
2021/01/19 09:46:07;;;;;;;1.50;1.40;;;;;;;5.76;100.00;99253.28;4998554;28;20234;-35
2021/01/19 09:48:56;;;;;;;1.33;1.33;;;;;;;5.47;100.00;99261.09;5000563;28;20553;-35
2021/01/19 09:51:43;;;;;;;1.67;1.57;;;;;;;5.51;100.00;99242.28;4998933;28;20302;-35
2021/01/19 09:54:30;;;;;;;1.60;1.50;;;;;;;5.41;100.00;99239.75;4999209;28;20264;-35
2021/01/19 09:57:26;;;;;;;1.43;1.33;;;;;;;5.52;100.00;99243.13;5000309;28;20193;-35
2021/01/19 10:00:13;;;;;;;2.63;1.53;;;;;;;5.32;100.00;99239.81;4998110;28;20198;-34
2021/01/19 10:03:11;;;;;;;2.10;1.47;;;;;;;5.37;100.00;99241.50;4998027;28;20290;-35
2021/01/19 10:06:03;;;;;;;1.97;1.77;;;;;;;5.49;100.00;99233.75;4999066;28;20233;-35
2021/01/19 10:08:54;;;;;;;1.90;1.80;;;;;;;5.47;100.00;99237.19;4998438;28;20246;-33
2021/01/19 10:11:42;;;;;;;3.30;1.87;;;;;;;5.60;100.00;99220.84;4998304;28;20744;-34
2021/01/19 10:14:33;;;;;;;1.67;1.57;;;;;;;5.35;100.00;99220.16;4998560;28;20585;-34
2021/01/19 10:17:40;;;;;;;1.97;1.73;;;;;;;5.26;100.00;99219.31;4999445;28;20491;-35
2021/01/19 10:20:34;;;;;;;3.87;2.67;;;;;;;5.30;100.00;99218.47;4998702;28;20351;-33
2021/01/19 10:23:29;;;;;;;2.00;1.90;;;;;;;5.30;100.00;99211.63;4999118;28;20289;-34
2021/01/19 10:26:27;;;;;;;2.50;2.30;;;;;;;5.35;100.00;99214.16;4998091;28;20226;-35
2021/01/19 10:29:22;;;;;;;2.03;1.93;;;;;;;5.10;100.00;99205.72;4998194;28;20202;-34
2021/01/19 10:32:11;;;;;;;2.30;2.20;;;;;;;5.28;100.00;99195.38;4998195;28;20222;-34
2021/01/19 10:35:01;;;;;;;2.57;2.10;;;;;;;5.15;100.00;99193.75;4998880;28;20716;-34
2021/01/19 10:37:59;;;;;;;2.60;2.27;;;;;;;5.14;100.00;99176.66;4998394;28;20477;-33
2021/01/19 10:40:46;;;;;;;2.73;2.13;;;;;;;5.07;100.00;99190.34;4999589;28;20235;-34
2021/01/19 10:43:33;;;;;;;3.67;2.40;;;;;;;5.22;100.00;99182.59;4997866;28;20207;-33
2021/01/19 10:46:25;;;;;;;3.67;2.17;;;;;;;5.22;100.00;99174.03;4998425;28;20234;-34
2021/01/19 10:49:14;;;;;;;4.27;2.40;;;;;;;5.22;100.00;99176.59;4998302;28;20198;-32
2021/01/19 10:52:04;;;;;;;2.40;2.20;;;;;;;5.28;100.00;99172.31;4999008;28;20477;-33
2021/01/19 10:54:50;;;;;;;3.20;2.37;;;;;;;5.34;100.00;99187.69;4998190;28;20202;-33
2021/01/19 10:57:37;;;;;;;2.20;2.07;;;;;;;5.12;100.00;99168.13;4999994;28;20205;-33
2021/01/19 11:00:26;;;;;;;3.10;2.30;;;;;;;5.20;100.00;99168.94;4997364;28;20199;-32
2021/01/19 11:03:14;;;;;;;3.00;2.80;;;;;;;5.42;100.00;99164.53;4998424;28;20238;-33
2021/01/19 11:06:00;;;;;;;3.43;2.70;;;;;;;5.23;100.00;99166.34;4997952;28;20729;-32
2021/01/19 11:08:49;;;;;;;3.70;3.20;;;;;;;5.36;100.00;99159.47;4999320;28;20532;-32
2021/01/19 11:11:39;;;;;;;3.90;3.60;;;;;;;5.48;100.00;99174.75;4996264;28;20206;-34
2021/01/19 11:14:26;;;;;;;3.70;3.40;;;;;;;5.47;100.00;99158.53;4997134;28;20343;-33
2021/01/19 11:17:12;;;;;;;4.00;3.70;;;;;;;5.60;100.00;99159.28;4997064;28;20206;-33
2021/01/19 11:20:03;;;;;;;4.47;4.10;;;;;;;5.45;100.00;99154.25;4997126;28;20206;-33
2021/01/19 11:22:49;;;;;;;5.00;4.17;;;;;;;5.60;100.00;99164.41;4996430;28;20254;-34
2021/01/19 11:25:37;;;;;;;4.83;4.47;;;;;;;5.71;100.00;99162.66;4996670;28;20359;-33
2021/01/19 11:28:23;;;;;;;5.47;4.90;;;;;;;5.64;100.00;99157.56;4997000;28;20561;-33
2021/01/19 11:31:12;;;;;;;4.73;4.23;;;;;;;5.60;100.00;99159.28;4997817;28;20199;-33
2021/01/19 11:34:04;;;;;;;5.20;4.73;;;;;;;5.59;100.00;99154.19;4996839;28;20235;-33
2021/01/19 11:36:52;;;;;;;5.90;5.30;;;;;;;5.79;100.00;99155.75;4997620;28;20203;-33
2021/01/19 11:39:41;;;;;;;6.27;5.33;;;;;;;5.93;100.00;99152.25;4996234;28;20255;-33
2021/01/19 11:42:27;;;;;;;7.70;5.30;;;;;;;5.87;100.00;99141.13;4997072;28;20207;-34
2021/01/19 11:45:14;;;;;;;6.20;5.70;;;;;;;5.93;100.00;99149.69;4996003;28;20206;-33
2021/01/19 11:48:02;;;;;;;6.90;6.30;;;;;;;5.92;100.00;99140.28;4997583;28;20500;-33
2021/01/19 11:50:48;;;;;;;6.83;6.23;;;;;;;6.12;100.00;99140.97;4996357;28;20654;-33
2021/01/19 11:53:38;;;;;;;8.10;7.30;;;;;;;6.31;100.00;99141.63;4998203;28;20199;-33
2021/01/19 11:56:38;;;;;;;7.60;7.00;;;;;;;6.23;100.00;99134.00;5000796;28;20204;-33
2021/01/19 11:59:31;;;;;;;8.33;7.27;;;;;;;6.29;100.00;99139.06;4996565;28;20304;-35
2021/01/19 12:02:20;;;;;;;9.10;7.63;;;;;;;6.31;100.00;99133.94;4996453;28;20206;-33
2021/01/19 12:05:08;;;;;;;9.07;8.17;;;;;;;6.46;100.00;99133.75;5002048;28;20214;-33
2021/01/19 12:07:54;;;;;;;11.67;8.57;;;;;;;6.48;100.00;99130.31;4999739;28;20210;-33
2021/01/19 12:10:44;;;;;;;9.63;7.93;;;;;;;6.57;100.00;99127.66;5002735;28;20544;-34
2021/01/19 12:13:31;;;;;;;9.70;8.70;;;;;;;6.71;100.00;99131.78;5001361;28;20198;-32
2021/01/19 12:16:20;;;;;;;9.27;8.23;;;;;;;6.67;100.00;99128.41;4999483;28;20653;-31
2021/01/19 12:19:10;;;;;;;9.77;8.77;;;;;;;6.79;100.00;99119.72;5000031;28;20625;-32
2021/01/19 12:21:58;;;;;;;10.07;9.10;;;;;;;6.98;100.00;99131.47;4999851;28;20202;-32
2021/01/19 12:24:44;;;;;;;10.80;9.70;;;;;;;6.84;100.00;99129.03;5000265;28;20214;-32
2021/01/19 12:27:31;;;;;;;12.80;11.03;;;;;;;6.87;100.00;99123.88;4999863;28;20303;-33
2021/01/19 12:30:18;;;;;;;12.87;11.60;;;;;;;7.01;100.00;99108.25;5005620;28;20266;-33
2021/01/19 12:33:06;;;;;;;14.87;13.23;;;;;;;7.12;100.00;99116.69;4999900;28;20191;-33
2021/01/19 12:35:53;;;;;;;15.43;12.33;;;;;;;7.12;100.00;99121.00;5000451;28;20203;-33
2021/01/19 12:38:41;;;;;;;14.33;12.80;;;;;;;7.15;100.00;99116.66;5000185;28;20247;-33
2021/01/19 12:41:33;;;;;;;14.00;12.53;;;;;;;7.12;100.00;99113.28;4999289;28;20625;-33
2021/01/19 12:44:20;;;;;;;18.30;15.03;;;;;;;7.22;100.00;99115.69;5001113;28;20209;-32
2021/01/19 12:47:07;;;;;;;18.43;16.07;;;;;;;7.31;100.00;99109.56;5000432;28;20383;-33
2021/01/19 12:49:53;;;;;;;19.47;17.37;;;;;;;7.37;100.00;99113.78;4999103;28;20290;-32
2021/01/19 12:52:42;;;;;;;20.20;16.63;;;;;;;7.47;100.00;99120.47;4999412;28;20263;-35
2021/01/19 12:55:29;;;;;;;19.67;17.00;;;;;;;7.44;100.00;99108.50;4998902;28;20338;-33
2021/01/19 12:58:15;;;;;;;21.43;17.27;;;;;;;7.51;100.00;99117.00;4999074;28;20265;-32
2021/01/19 13:01:03;;;;;;;19.07;15.93;;;;;;;7.46;100.00;99114.47;5000195;28;20574;-33
2021/01/19 13:03:52;;;;;;;16.57;14.80;;;;;;;7.55;100.00;99103.22;4998753;28;20327;-33
2021/01/19 13:06:46;;;;;;;20.07;16.07;;;;;;;7.86;100.00;99113.84;4999204;28;20227;-32
2021/01/19 13:09:33;;;;;;;19.77;16.90;;;;;;;7.70;100.00;99109.84;4998650;28;20336;-32